createdAt,value
2022-08-20T05:11:49.095Z,4.83
2022-08-20T05:14:16.034Z,4.55
2022-08-20T05:16:42.968Z,4.47
2022-08-20T05:19:12.913Z,4.75
2022-08-20T05:21:40.385Z,4.53
2022-08-20T05:53:59.186Z,5.82
2022-08-20T05:56:30.791Z,6.22
2022-08-20T05:59:00.452Z,6.10
2022-08-20T06:01:27.490Z,5.82
2022-08-20T06:04:13.135Z,6.07
2022-08-20T06:06:44.593Z,5.78
2022-08-20T06:09:14.820Z,5.57
2022-08-20T06:11:41.887Z,4.82
2022-08-20T06:14:08.820Z,4.90
2022-08-20T06:16:37.375Z,4.80
2022-08-20T06:19:05.508Z,4.80
2022-08-20T06:21:32.538Z,4.95
2022-08-20T06:24:01.095Z,4.68
2022-08-20T06:26:30.435Z,4.85
2022-08-20T06:29:02.654Z,4.28
2022-08-20T06:31:29.640Z,4.25
2022-08-20T06:33:57.123Z,3.10
2022-08-20T06:36:24.944Z,3.15
2022-08-20T06:38:52.013Z,3.20
2022-08-20T06:41:18.913Z,2.90
2022-08-20T06:43:46.559Z,3.30
2022-08-20T06:46:14.665Z,3.05
2022-08-20T06:48:41.709Z,3.20
2022-08-20T06:53:37.177Z,3.42
2022-08-20T06:56:04.470Z,2.72
2022-08-20T08:19:39.969Z,2.17
2022-08-20T08:22:13.211Z,2.20
2022-08-20T08:24:57.424Z,1.95
2022-08-20T08:27:25.321Z,1.88
2022-08-20T08:29:52.161Z,1.95
2022-08-20T08:32:19.492Z,2.10
2022-08-20T08:37:15.261Z,1.75
2022-08-20T08:39:42.427Z,2.03
2022-08-20T08:42:38.961Z,1.55
2022-08-20T08:45:10.896Z,1.75
2022-08-20T08:50:10.091Z,2.05
2022-08-20T08:52:41.306Z,2.28
2022-08-20T08:55:22.240Z,2.20
2022-08-20T08:57:50.221Z,2.25
2022-08-20T09:00:19.736Z,2.13
2022-08-20T09:03:22.505Z,1.83
2022-08-20T09:05:53.579Z,1.85
2022-08-20T09:08:27.462Z,1.90
2022-08-20T09:10:54.789Z,1.63
2022-08-20T09:13:22.397Z,1.90
2022-08-20T09:15:49.417Z,2.03
2022-08-20T09:18:16.603Z,1.70
2022-08-20T09:20:43.734Z,1.67
2022-08-20T09:23:10.707Z,2.03
2022-08-20T09:25:37.890Z,1.80
2022-08-20T09:28:09.446Z,1.88
2022-08-20T09:30:36.830Z,2.25
2022-08-20T09:33:05.271Z,2.15
2022-08-20T09:35:32.293Z,1.50
2022-08-20T09:37:59.370Z,1.63
2022-08-20T09:40:26.724Z,1.70
2022-08-20T09:42:53.925Z,1.70
2022-08-20T09:45:21.351Z,1.80
2022-08-20T09:47:56.569Z,2.03
2022-08-20T09:50:26.809Z,2.00
2022-08-20T09:52:55.238Z,1.85
2022-08-20T09:55:28.746Z,1.60
2022-08-20T10:00:22.926Z,2.05
2022-08-20T10:02:49.847Z,1.42
2022-08-20T10:05:16.901Z,1.98
2022-08-20T10:07:43.824Z,1.60
2022-08-20T10:10:13.703Z,1.70
2022-08-20T10:15:09.472Z,1.50
2022-08-20T10:17:41.954Z,1.58
2022-08-20T10:20:11.310Z,1.88
2022-08-20T10:22:38.341Z,1.48
2022-08-20T10:25:06.426Z,1.52
2022-08-20T10:27:34.297Z,1.50
2022-08-20T10:30:02.433Z,1.38
2022-08-20T10:32:29.623Z,1.60
2022-08-20T10:34:56.677Z,1.50
2022-08-20T10:37:25.625Z,1.30
2022-08-20T10:39:53.292Z,1.65
2022-08-20T10:42:20.474Z,1.58
2022-08-20T11:06:50.591Z,1.92
2022-08-20T11:09:17.593Z,2.42
2022-08-20T11:11:44.556Z,2.45
2022-08-20T11:14:11.571Z,2.38
2022-08-20T11:16:38.511Z,2.60
2022-08-20T11:19:05.396Z,2.80
2022-08-20T11:21:32.361Z,3.83
2022-08-20T11:24:02.713Z,2.67
2022-08-20T11:26:30.162Z,2.30
2022-08-20T11:28:57.098Z,2.10
2022-08-20T11:31:24.023Z,2.25
2022-08-20T11:33:50.883Z,2.45
2022-08-20T11:36:17.911Z,2.30
2022-08-20T11:38:44.915Z,2.40
2022-08-20T11:41:11.893Z,2.30
2022-08-20T11:43:38.817Z,2.22
2022-08-20T11:46:06.102Z,2.38
2022-08-20T11:48:33.019Z,2.20
2022-08-20T11:51:00.346Z,1.60
2022-08-20T11:53:27.187Z,2.00
2022-08-20T11:55:55.618Z,1.73
2022-08-20T11:58:22.649Z,1.95
2022-08-20T12:00:49.801Z,1.45
2022-08-20T12:03:16.779Z,1.75
2022-08-20T12:05:45.928Z,1.92
2022-08-20T12:15:57.942Z,2.03
2022-08-20T12:20:54.763Z,1.40
2022-08-20T12:23:21.703Z,2.22
2022-08-20T12:25:48.974Z,1.77
2022-08-20T12:28:15.964Z,1.83
2022-08-20T12:30:42.845Z,1.80
2022-08-20T12:33:09.855Z,1.58
2022-08-20T12:35:37.244Z,1.92
2022-08-20T12:38:06.320Z,2.00
2022-08-20T12:40:34.373Z,1.80
2022-08-20T12:43:02.683Z,2.05
2022-08-20T12:45:30.611Z,2.03
2022-08-20T12:48:09.445Z,2.20
2022-08-20T12:50:37.755Z,2.30
2022-08-20T12:53:05.586Z,1.80
2022-08-20T12:55:33.093Z,2.67
2022-08-20T13:00:43.098Z,2.00
2022-08-20T13:03:12.656Z,2.00
2022-08-20T13:05:40.248Z,2.10
2022-08-20T13:08:09.517Z,2.10
2022-08-20T13:10:44.060Z,2.10
2022-08-20T13:15:42.028Z,2.40
2022-08-20T13:18:09.198Z,2.40
2022-08-20T13:20:36.895Z,2.05
2022-08-20T13:23:05.335Z,2.10
2022-08-20T13:25:33.137Z,2.10
2022-08-20T13:28:04.485Z,2.25
2022-08-20T13:30:33.210Z,2.40
2022-08-20T13:33:00.295Z,2.10
2022-08-20T13:35:27.183Z,2.17
2022-08-20T13:37:54.113Z,2.15
2022-08-20T13:50:17.135Z,2.38
2022-08-20T13:52:44.791Z,2.33
2022-08-20T13:55:17.732Z,2.50
2022-08-20T13:57:46.579Z,2.40
2022-08-20T14:05:11.223Z,2.40
2022-08-20T14:07:41.203Z,2.40
2022-08-20T14:27:27.762Z,2.10
2022-08-20T14:29:58.241Z,2.50
2022-08-20T14:32:25.802Z,2.50
2022-08-20T14:34:53.701Z,2.30
2022-08-20T14:37:26.731Z,2.08
2022-08-20T14:39:57.080Z,2.30
2022-08-20T14:42:27.078Z,2.30
2022-08-20T14:44:59.042Z,2.08
2022-08-20T14:47:30.054Z,2.47
2022-08-20T14:50:04.838Z,2.30
2022-08-20T14:52:36.362Z,2.38
2022-08-20T14:55:09.545Z,2.30
2022-08-20T14:57:37.690Z,2.30
2022-08-20T15:00:08.149Z,2.58
2022-08-20T15:05:02.327Z,2.85
2022-08-20T15:07:32.461Z,2.50
2022-08-20T15:10:01.095Z,2.47
2022-08-20T15:12:28.922Z,2.22
2022-08-20T15:14:55.971Z,2.20
2022-08-20T15:17:29.588Z,2.53
2022-08-20T15:22:24.833Z,2.35
2022-08-20T15:24:55.474Z,2.40
2022-08-20T15:29:53.045Z,2.38
2022-08-20T15:32:20.853Z,1.98
2022-08-20T15:34:47.901Z,2.20
2022-08-20T15:37:21.118Z,2.50
2022-08-20T15:39:48.435Z,2.97
2022-08-20T15:42:16.656Z,2.05
2022-08-20T15:44:44.215Z,2.60
2022-08-20T15:47:34.923Z,2.30
2022-08-20T15:52:42.168Z,2.45
2022-08-20T15:55:15.638Z,2.40
2022-08-20T15:58:14.012Z,2.33
2022-08-20T16:00:49.977Z,2.35
2022-08-20T16:03:25.678Z,2.38
2022-08-20T16:06:06.417Z,2.70
2022-08-20T16:09:38.267Z,2.60
2022-08-20T16:12:12.144Z,2.80
2022-08-20T16:14:42.834Z,2.40
2022-08-20T16:17:13.689Z,2.45
2022-08-20T16:19:52.469Z,2.40
2022-08-20T16:22:19.967Z,2.30
2022-08-20T16:24:47.302Z,2.45
2022-08-20T16:27:35.974Z,2.17
2022-08-20T16:30:11.861Z,2.30
2022-08-20T16:32:46.369Z,2.20
2022-08-20T16:35:30.169Z,2.55
2022-08-20T16:38:21.006Z,2.67
2022-08-20T16:40:55.038Z,2.40
2022-08-20T16:44:02.749Z,2.50
2022-08-20T16:46:37.953Z,2.67
2022-08-20T16:49:13.811Z,2.88
2022-08-20T16:51:52.035Z,2.63
2022-08-20T16:54:29.236Z,2.60
2022-08-20T16:57:06.120Z,2.57
2022-08-20T16:59:33.649Z,2.55
2022-08-20T17:02:11.185Z,2.70
2022-08-20T17:04:59.638Z,2.53
2022-08-20T17:07:58.898Z,2.50
2022-08-20T17:10:33.464Z,2.67
2022-08-20T17:13:06.376Z,2.83
2022-08-20T17:15:35.275Z,2.63
2022-08-20T17:18:25.949Z,2.72
2022-08-20T17:20:53.206Z,2.60
2022-08-20T17:23:21.391Z,3.00
2022-08-20T17:26:04.720Z,2.78
2022-08-20T17:28:35.250Z,3.72
2022-08-20T17:31:02.546Z,2.57
2022-08-20T17:33:35.784Z,2.70
2022-08-20T17:36:11.423Z,2.70
2022-08-20T17:38:46.555Z,3.00
2022-08-20T17:41:27.406Z,2.95
2022-08-20T17:44:03.870Z,3.08
2022-08-20T17:46:44.546Z,2.97
2022-08-20T17:49:17.366Z,3.20
2022-08-20T17:51:51.749Z,3.10
2022-08-20T17:54:23.117Z,3.17
2022-08-20T17:56:55.758Z,3.20
2022-08-20T18:00:01.071Z,2.97
2022-08-20T18:02:24.000Z,3.00
2022-08-20T18:04:53.589Z,3.10
2022-08-20T18:07:41.030Z,3.00
2022-08-20T18:10:14.718Z,2.97
2022-08-20T18:12:50.924Z,3.33
2022-08-20T18:15:36.169Z,2.80
2022-08-20T18:18:18.231Z,3.15
2022-08-20T18:20:51.299Z,3.42
2022-08-20T18:23:31.406Z,3.50
2022-08-20T18:26:06.449Z,3.20
2022-08-20T18:28:46.873Z,3.72
2022-08-20T18:31:53.649Z,3.40
2022-08-20T18:34:29.695Z,3.17
2022-08-20T18:37:06.830Z,3.30
2022-08-20T18:39:35.219Z,3.00
2022-08-20T18:42:22.991Z,3.22
2022-08-20T18:44:52.508Z,3.08
2022-08-20T18:47:33.080Z,3.10
2022-08-20T18:50:06.544Z,3.20
2022-08-20T18:52:46.534Z,3.00
2022-08-20T18:55:36.809Z,3.20
2022-08-20T18:58:07.345Z,3.00
2022-08-20T19:00:47.635Z,3.10
2022-08-20T19:03:17.494Z,3.17
2022-08-20T19:06:07.530Z,2.70
2022-08-20T19:08:48.358Z,2.90
2022-08-20T19:11:24.902Z,2.78
2022-08-20T19:14:26.959Z,3.00
2022-08-20T19:17:04.213Z,3.03
2022-08-20T19:19:33.087Z,2.75
2022-08-20T19:22:02.007Z,3.00
2022-08-20T19:24:32.553Z,3.33
2022-08-20T19:27:04.808Z,4.18
2022-08-20T19:29:37.052Z,3.67
2022-08-20T19:32:07.673Z,3.40
2022-08-20T19:34:35.643Z,3.20
2022-08-20T19:37:34.890Z,3.20
2022-08-20T19:40:18.517Z,3.47
2022-08-20T19:42:46.543Z,4.40
2022-08-20T19:45:26.005Z,4.30
2022-08-20T19:48:27.133Z,3.20
2022-08-20T19:51:10.657Z,3.50
2022-08-20T19:53:43.081Z,3.20
2022-08-20T19:56:14.669Z,3.65
2022-08-20T19:58:42.436Z,3.40
2022-08-20T20:01:21.257Z,3.70
2022-08-20T20:04:00.681Z,3.50
2022-08-20T20:06:30.042Z,4.00
2022-08-20T20:08:58.796Z,5.22
2022-08-20T20:11:41.179Z,5.93
2022-08-20T20:14:12.339Z,5.47
2022-08-20T20:16:41.597Z,5.47
2022-08-20T20:19:26.408Z,4.22
2022-08-20T20:22:19.752Z,4.63
2022-08-20T20:24:57.677Z,4.85
2022-08-20T20:27:27.381Z,4.40
2022-08-20T20:30:11.974Z,4.47
2022-08-20T20:32:48.654Z,4.00
2022-08-20T20:35:34.543Z,5.25
2022-08-20T20:38:06.294Z,3.70
2022-08-20T20:40:49.562Z,3.72
2022-08-20T20:43:43.018Z,4.32
2022-08-20T20:46:19.909Z,4.00
2022-08-20T20:48:50.188Z,3.97
2022-08-20T20:51:27.258Z,3.92
2022-08-20T20:53:57.564Z,4.00
2022-08-20T20:56:40.136Z,3.60
2022-08-20T20:59:08.406Z,3.90
2022-08-20T21:01:48.885Z,4.25
2022-08-20T21:04:17.987Z,4.20
2022-08-20T21:06:45.230Z,3.90
2022-08-20T21:09:12.812Z,4.10
2022-08-20T21:11:39.709Z,4.13
2022-08-20T21:14:06.795Z,4.55
2022-08-20T21:16:33.939Z,4.30
2022-08-20T21:19:04.445Z,4.30
2022-08-20T21:21:31.382Z,4.15
2022-08-20T21:23:58.320Z,4.25
2022-08-20T21:26:27.658Z,5.15
2022-08-20T21:28:54.683Z,5.22
2022-08-20T21:31:22.302Z,4.60
2022-08-20T21:33:49.178Z,4.50
2022-08-20T21:36:16.120Z,4.75
2022-08-20T21:38:43.202Z,4.60
2022-08-20T21:41:10.328Z,4.32
2022-08-20T21:43:37.895Z,4.90
2022-08-20T21:46:05.131Z,4.40
2022-08-20T21:48:32.547Z,4.53
2022-08-20T21:50:59.649Z,4.63
2022-08-20T21:53:26.620Z,5.20
2022-08-20T21:55:53.625Z,6.65
2022-08-20T21:58:21.434Z,5.40
